createdAt,value
2018-05-29T00:00:47.492Z,92.90
2018-05-29T00:03:16.373Z,93.20
2018-05-29T00:05:45.247Z,93.40
2018-05-29T00:08:14.136Z,93.50
2018-05-29T00:10:43.007Z,93.70
2018-05-29T00:13:11.889Z,93.80
2018-05-29T00:15:40.844Z,93.90
2018-05-29T00:18:09.720Z,94.00
2018-05-29T00:20:38.618Z,94.20
2018-05-29T00:23:07.474Z,94.30
2018-05-29T00:25:36.351Z,94.40
2018-05-29T00:28:05.228Z,94.40
2018-05-29T00:30:34.892Z,94.50
2018-05-29T00:33:03.887Z,94.50
2018-05-29T00:35:32.775Z,94.50
2018-05-29T00:38:01.768Z,94.50
2018-05-29T00:40:30.659Z,94.50
2018-05-29T00:42:59.547Z,94.60
2018-05-29T00:45:28.446Z,94.60
2018-05-29T00:47:57.307Z,94.80
2018-05-29T00:50:26.209Z,94.90
2018-05-29T00:52:55.109Z,94.80
2018-05-29T00:55:35.870Z,94.90
2018-05-29T00:58:04.760Z,95.20
2018-05-29T01:00:33.649Z,95.20
2018-05-29T01:03:02.521Z,95.30
2018-05-29T01:05:31.399Z,95.30
2018-05-29T01:08:00.317Z,95.40
2018-05-29T01:10:29.199Z,95.40
2018-05-29T01:12:58.072Z,95.30
2018-05-29T01:15:26.959Z,95.40
2018-05-29T01:17:55.839Z,95.30
2018-05-29T01:20:24.765Z,95.40
2018-05-29T01:22:53.657Z,95.50
2018-05-29T01:25:22.528Z,95.40
2018-05-29T01:27:51.415Z,95.40
2018-05-29T01:30:20.275Z,95.50
2018-05-29T01:32:49.166Z,95.60
2018-05-29T01:35:18.042Z,95.70
2018-05-29T01:37:46.939Z,95.70
2018-05-29T01:40:15.812Z,95.70
2018-05-29T01:42:45.483Z,95.70
2018-05-29T01:45:14.363Z,95.70
2018-05-29T01:47:43.243Z,95.70
2018-05-29T01:50:12.156Z,95.80
2018-05-29T01:52:41.016Z,95.80
2018-05-29T01:55:09.906Z,95.80
2018-05-29T01:57:38.777Z,95.70
2018-05-29T02:00:07.653Z,95.70
2018-05-29T02:02:37.300Z,96.20
2018-05-29T02:05:06.175Z,96.20
2018-05-29T02:07:35.081Z,96.50
2018-05-29T02:10:03.956Z,96.60
2018-05-29T02:12:32.823Z,96.70
2018-05-29T02:15:01.716Z,97.10
2018-05-29T02:17:30.607Z,97.60
2018-05-29T02:19:59.547Z,97.90
2018-05-29T02:22:28.384Z,98.10
2018-05-29T02:24:57.246Z,98.30
2018-05-29T02:27:26.909Z,98.30
2018-05-29T02:29:55.791Z,98.30
2018-05-29T02:32:24.719Z,98.30
2018-05-29T02:34:54.340Z,98.40
2018-05-29T02:37:23.989Z,98.20
2018-05-29T02:39:52.903Z,98.20
2018-05-29T02:42:21.776Z,97.90
2018-05-29T02:44:50.693Z,97.80
2018-05-29T02:47:19.584Z,97.90
2018-05-29T02:49:48.439Z,97.80
2018-05-29T02:52:17.331Z,97.80
2018-05-29T02:54:46.198Z,97.80
2018-05-29T02:57:15.080Z,97.80
2018-05-29T02:59:43.967Z,97.80
2018-05-29T03:02:13.627Z,98.00
2018-05-29T03:04:43.285Z,97.80
2018-05-29T03:07:12.933Z,97.70
2018-05-29T03:09:41.809Z,97.70
2018-05-29T03:12:10.699Z,97.60
2018-05-29T03:14:39.578Z,97.70
2018-05-29T03:17:08.510Z,97.70
2018-05-29T03:19:39.047Z,97.40
2018-05-29T03:22:07.942Z,97.30
2018-05-29T03:24:36.812Z,97.30
2018-05-29T03:27:05.708Z,97.50
2018-05-29T03:29:34.600Z,97.20
2018-05-29T03:32:03.483Z,97.20
2018-05-29T03:34:32.431Z,97.10
2018-05-29T03:37:01.266Z,97.10
2018-05-29T03:39:30.157Z,97.00
2018-05-29T03:41:59.050Z,96.90
2018-05-29T03:44:27.925Z,96.70
2018-05-29T03:46:56.822Z,96.70
2018-05-29T03:49:25.692Z,96.80
2018-05-29T03:51:54.572Z,97.10
2018-05-29T03:54:23.492Z,96.90
2018-05-29T03:56:52.358Z,96.90
2018-05-29T03:59:21.224Z,96.80
2018-05-29T04:01:50.808Z,96.80
2018-05-29T04:04:19.707Z,96.70
2018-05-29T04:06:48.757Z,96.70
2018-05-29T04:09:17.652Z,96.40
2018-05-29T04:11:46.535Z,96.40
2018-05-29T04:14:15.398Z,96.70
2018-05-29T04:16:44.282Z,96.70
2018-05-29T04:19:13.143Z,96.60
2018-05-29T04:21:42.808Z,96.40
2018-05-29T04:24:11.684Z,96.40
2018-05-29T04:26:40.810Z,96.50
2018-05-29T04:29:09.683Z,96.30
2018-05-29T04:31:38.551Z,96.40
2018-05-29T04:34:07.437Z,96.10
2018-05-29T04:36:36.311Z,95.70
2018-05-29T04:39:05.918Z,95.40
2018-05-29T04:41:34.807Z,95.40
2018-05-29T04:44:03.693Z,95.30
2018-05-29T04:46:32.574Z,95.10
2018-05-29T04:49:01.468Z,95.10
2018-05-29T04:51:30.350Z,95.10
2018-05-29T04:53:59.210Z,95.10
2018-05-29T04:56:28.944Z,94.80
2018-05-29T04:58:57.771Z,95.00
2018-05-29T05:01:26.761Z,95.10
2018-05-29T05:03:55.754Z,95.40
2018-05-29T05:06:24.654Z,95.20
2018-05-29T05:08:53.660Z,95.00
2018-05-29T05:11:22.499Z,94.50
2018-05-29T05:13:51.432Z,94.30
2018-05-29T05:16:20.325Z,94.80
2018-05-29T05:18:49.172Z,94.10
2018-05-29T05:21:18.056Z,93.70
2018-05-29T05:23:46.932Z,93.40
2018-05-29T05:26:15.820Z,93.50
2018-05-29T05:28:44.711Z,92.60
2018-05-29T05:31:14.376Z,91.20
2018-05-29T05:33:43.241Z,91.20
2018-05-29T05:36:12.122Z,90.10
2018-05-29T05:38:41.122Z,89.70
2018-05-29T05:41:09.998Z,89.30
2018-05-29T05:43:38.885Z,90.00
2018-05-29T05:46:07.839Z,90.20
2018-05-29T05:48:36.774Z,89.90
2018-05-29T05:51:05.663Z,89.70
2018-05-29T05:53:34.551Z,89.40
2018-05-29T05:56:03.551Z,88.80
2018-05-29T05:58:32.424Z,89.90
2018-05-29T06:01:01.309Z,89.50
2018-05-29T06:03:30.223Z,89.50
2018-05-29T06:05:59.106Z,90.00
2018-05-29T06:08:28.003Z,87.20
2018-05-29T06:10:56.875Z,87.50
2018-05-29T06:13:25.766Z,87.20
2018-05-29T06:15:54.671Z,87.90
2018-05-29T06:18:23.557Z,86.60
2018-05-29T06:20:52.448Z,83.50
2018-05-29T06:23:21.318Z,83.70
2018-05-29T06:25:50.212Z,80.30
2018-05-29T06:28:19.094Z,80.70
2018-05-29T06:30:47.958Z,81.40
2018-05-29T06:33:17.631Z,82.30
2018-05-29T06:35:46.510Z,82.30
2018-05-29T06:38:15.494Z,83.30
2018-05-29T06:40:44.370Z,85.40
2018-05-29T06:43:13.364Z,84.80
2018-05-29T06:45:42.227Z,84.50
2018-05-29T06:48:11.102Z,83.30
2018-05-29T06:50:40.752Z,82.80
2018-05-29T06:53:09.618Z,82.80
2018-05-29T06:55:38.525Z,82.30
2018-05-29T06:58:07.445Z,82.30
2018-05-29T07:00:36.414Z,81.40
2018-05-29T07:03:05.413Z,82.40
2018-05-29T07:05:34.304Z,82.10
2018-05-29T07:08:03.179Z,81.00
2018-05-29T07:10:32.075Z,81.60
2018-05-29T07:13:00.983Z,78.00
2018-05-29T07:15:29.944Z,80.30
2018-05-29T07:17:58.825Z,79.10
2018-05-29T07:20:28.495Z,75.10
2018-05-29T07:22:58.165Z,74.30
2018-05-29T07:25:27.061Z,74.20
2018-05-29T07:27:55.946Z,73.60
2018-05-29T07:30:24.809Z,73.90
2018-05-29T07:32:53.696Z,75.20
2018-05-29T07:35:22.567Z,74.60
2018-05-29T07:37:52.311Z,75.90
2018-05-29T07:40:21.182Z,75.90
2018-05-29T07:42:50.083Z,74.70
2018-05-29T07:45:18.968Z,76.10
2018-05-29T07:47:47.864Z,77.50
2018-05-29T07:50:16.895Z,78.40
2018-05-29T07:52:45.799Z,75.70
2018-05-29T07:55:14.722Z,75.70
2018-05-29T07:57:43.588Z,75.70
2018-05-29T08:00:13.283Z,76.00
2018-05-29T08:02:42.252Z,76.00
2018-05-29T08:05:11.146Z,72.70
2018-05-29T08:07:40.034Z,73.30
2018-05-29T08:10:09.861Z,73.50
2018-05-29T08:12:38.741Z,73.60
2018-05-29T08:15:07.611Z,74.40
2018-05-29T08:17:36.620Z,75.40
2018-05-29T08:20:05.483Z,76.90
2018-05-29T08:22:34.396Z,76.60
2018-05-29T08:25:03.314Z,77.10
2018-05-29T08:27:32.188Z,77.70
2018-05-29T08:30:01.895Z,76.50
2018-05-29T08:32:30.860Z,76.50
2018-05-29T08:34:59.724Z,75.20
2018-05-29T08:37:28.624Z,75.00
2018-05-29T08:39:57.521Z,74.00
2018-05-29T08:42:26.407Z,73.70
2018-05-29T08:44:55.316Z,73.40
2018-05-29T08:47:24.283Z,73.60
2018-05-29T08:49:53.188Z,72.70
2018-05-29T08:52:22.834Z,72.90
2018-05-29T08:54:51.780Z,72.90
2018-05-29T08:57:20.704Z,74.20
2018-05-29T08:59:49.527Z,72.60
2018-05-29T09:02:18.486Z,73.90
2018-05-29T09:04:47.452Z,74.10
2018-05-29T09:07:16.444Z,74.90
2018-05-29T09:09:45.333Z,74.20
2018-05-29T09:12:14.198Z,74.70
2018-05-29T09:14:43.093Z,74.30
2018-05-29T09:17:11.991Z,73.50
2018-05-29T09:19:40.895Z,72.40
2018-05-29T09:22:09.775Z,69.80
2018-05-29T09:24:38.627Z,70.50
2018-05-29T09:27:08.380Z,70.40
2018-05-29T09:29:37.284Z,70.40
2018-05-29T09:32:06.149Z,71.00
2018-05-29T09:34:35.018Z,72.50
2018-05-29T09:37:03.925Z,72.00
2018-05-29T09:39:32.909Z,72.80
2018-05-29T09:42:01.808Z,71.60
2018-05-29T09:44:30.712Z,71.40
2018-05-29T09:46:59.597Z,72.10
2018-05-29T09:49:28.486Z,71.70
2018-05-29T09:51:57.367Z,72.30
2018-05-29T09:54:26.262Z,73.00
2018-05-29T09:56:55.149Z,72.50
2018-05-29T09:59:24.056Z,73.00
2018-05-29T10:01:53.014Z,72.40
2018-05-29T10:04:22.031Z,72.20
2018-05-29T10:06:51.038Z,70.20
2018-05-29T10:09:19.922Z,69.40
2018-05-29T10:11:51.273Z,71.40
2018-05-29T10:14:20.186Z,71.80
2018-05-29T10:16:49.052Z,72.00
2018-05-29T10:19:18.032Z,71.70
2018-05-29T10:21:46.995Z,72.70
2018-05-29T10:24:15.911Z,72.80
2018-05-29T10:26:44.902Z,73.20
2018-05-29T10:29:13.767Z,72.70
2018-05-29T10:31:42.659Z,73.50
2018-05-29T10:34:11.589Z,72.90
2018-05-29T10:36:40.508Z,71.90
2018-05-29T10:39:09.531Z,72.60
2018-05-29T10:41:38.427Z,73.60
2018-05-29T10:44:07.424Z,73.80
2018-05-29T10:46:36.311Z,73.50
2018-05-29T10:49:05.216Z,73.80
2018-05-29T10:51:34.197Z,74.00
2018-05-29T10:54:03.077Z,74.20
2018-05-29T10:56:31.985Z,74.80
2018-05-29T10:59:00.849Z,73.70
2018-05-29T11:01:29.770Z,72.90
2018-05-29T11:03:58.753Z,70.00
2018-05-29T11:06:27.737Z,70.60
2018-05-29T11:08:58.577Z,69.10
2018-05-29T11:11:27.428Z,70.10
2018-05-29T11:13:56.368Z,70.50
2018-05-29T11:16:25.437Z,70.10
2018-05-29T11:18:54.327Z,66.90
2018-05-29T11:21:23.204Z,65.40
2018-05-29T11:23:52.097Z,67.00
2018-05-29T11:26:21.032Z,65.80
2018-05-29T11:28:49.904Z,64.30
2018-05-29T11:31:18.782Z,65.40
2018-05-29T11:33:47.691Z,65.50
2018-05-29T11:36:16.654Z,65.90
2018-05-29T11:38:45.558Z,64.80
2018-05-29T11:41:14.448Z,62.70
2018-05-29T11:43:43.339Z,60.70
2018-05-29T11:46:12.215Z,63.70
2018-05-29T11:48:41.096Z,62.60
2018-05-29T11:51:10.149Z,63.20
2018-05-29T11:53:39.041Z,63.30
2018-05-29T11:56:07.946Z,63.70
2018-05-29T11:58:37.588Z,65.00
2018-05-29T12:01:06.473Z,65.00
2018-05-29T12:03:35.462Z,66.20
2018-05-29T12:06:04.374Z,66.60
2018-05-29T12:08:33.280Z,67.50
2018-05-29T12:11:02.155Z,65.60
2018-05-29T12:13:31.059Z,66.20
2018-05-29T12:15:59.974Z,65.70
2018-05-29T12:18:28.940Z,65.10
2018-05-29T12:20:57.815Z,64.40
2018-05-29T12:23:26.806Z,61.00
2018-05-29T12:25:55.945Z,61.20
2018-05-29T12:28:25.180Z,61.10
2018-05-29T12:30:55.088Z,61.30
2018-05-29T12:33:23.980Z,62.30
2018-05-29T12:35:52.867Z,62.90
2018-05-29T12:38:24.443Z,63.40
2018-05-29T12:40:53.940Z,63.70
2018-05-29T12:43:24.885Z,63.00
2018-05-29T12:45:56.642Z,62.10
2018-05-29T12:48:28.162Z,62.70
2018-05-29T12:50:58.489Z,62.00
2018-05-29T12:53:27.546Z,62.30
2018-05-29T12:55:56.423Z,62.80
2018-05-29T12:58:25.334Z,64.40
2018-05-29T13:00:54.256Z,63.60
2018-05-29T13:03:23.196Z,63.50
2018-05-29T13:05:52.167Z,63.40
2018-05-29T13:08:21.049Z,64.00
2018-05-29T13:10:49.927Z,64.30
2018-05-29T13:13:18.835Z,64.60
2018-05-29T13:15:47.824Z,64.00
2018-05-29T13:18:16.689Z,63.40
2018-05-29T13:20:45.583Z,63.10
2018-05-29T13:23:14.661Z,62.80
2018-05-29T13:25:43.560Z,62.30
2018-05-29T13:28:12.478Z,62.20
2018-05-29T13:30:41.333Z,62.40
2018-05-29T13:33:11.017Z,61.70
2018-05-29T13:35:40.649Z,60.80
2018-05-29T13:38:09.548Z,60.70
2018-05-29T13:40:38.449Z,60.80
2018-05-29T13:43:07.330Z,59.30
2018-05-29T13:45:36.222Z,57.80
2018-05-29T13:48:05.134Z,57.20
2018-05-29T13:50:34.012Z,55.90
2018-05-29T13:53:02.903Z,54.90
2018-05-29T13:55:31.783Z,54.50
2018-05-29T13:58:00.698Z,54.70
2018-05-29T14:00:29.578Z,54.40
2018-05-29T14:02:58.495Z,55.10
2018-05-29T14:05:27.379Z,55.60
2018-05-29T14:07:56.265Z,54.10
2018-05-29T14:10:25.163Z,53.80
2018-05-29T14:12:54.023Z,52.70
2018-05-29T14:15:22.942Z,52.50
2018-05-29T14:17:51.810Z,51.20
2018-05-29T14:20:20.709Z,49.40
2018-05-29T14:22:50.215Z,51.50
2018-05-29T14:25:19.200Z,51.30
2018-05-29T14:27:48.129Z,51.00
2018-05-29T14:30:17.760Z,50.30
2018-05-29T14:32:46.643Z,49.90
2018-05-29T14:35:15.557Z,47.20
2018-05-29T14:37:44.431Z,45.50
2018-05-29T14:40:13.352Z,47.10
2018-05-29T14:42:42.234Z,47.00
2018-05-29T14:45:11.128Z,48.00
2018-05-29T14:47:40.017Z,47.80
2018-05-29T14:50:08.899Z,45.60
2018-05-29T14:52:37.791Z,41.40
2018-05-29T14:55:06.696Z,42.10
2018-05-29T14:57:35.576Z,38.00
2018-05-29T15:00:04.474Z,33.60
2018-05-29T15:02:33.341Z,30.40
2018-05-29T15:05:02.214Z,29.30
2018-05-29T15:07:31.114Z,29.30
2018-05-29T15:10:00.007Z,28.40
2018-05-29T15:12:28.875Z,28.10
2018-05-29T15:14:57.781Z,27.00
2018-05-29T15:17:26.671Z,27.10
2018-05-29T15:19:55.574Z,26.60
2018-05-29T15:22:24.450Z,25.40
2018-05-29T15:24:53.411Z,25.40
2018-05-29T15:27:23.268Z,26.40
2018-05-29T15:29:52.177Z,26.40
2018-05-29T15:32:21.047Z,26.80
2018-05-29T15:34:50.706Z,28.40
2018-05-29T15:37:20.363Z,27.70
2018-05-29T15:39:49.275Z,27.70
2018-05-29T15:42:18.171Z,28.30
2018-05-29T15:44:47.064Z,31.20
2018-05-29T15:47:15.936Z,31.90
2018-05-29T15:49:46.321Z,35.20
2018-05-29T15:52:15.228Z,35.20
2018-05-29T15:54:44.119Z,35.60
2018-05-29T15:57:13.035Z,36.90
2018-05-29T15:59:41.903Z,37.90
2018-05-29T16:02:10.796Z,37.70
2018-05-29T16:04:39.703Z,37.50
2018-05-29T16:07:08.574Z,36.80
2018-05-29T16:09:37.492Z,36.70
2018-05-29T16:12:06.368Z,36.70
2018-05-29T16:14:35.258Z,37.10
2018-05-29T16:17:04.191Z,37.60
2018-05-29T16:19:33.082Z,38.30
2018-05-29T16:22:02.017Z,38.70
2018-05-29T16:24:30.892Z,37.80
2018-05-29T16:26:59.806Z,38.70
2018-05-29T16:29:28.685Z,39.90
2018-05-29T16:31:57.572Z,40.60
2018-05-29T16:34:27.276Z,42.60
2018-05-29T16:36:56.191Z,42.60
2018-05-29T16:39:25.099Z,43.40
2018-05-29T16:41:53.972Z,44.40
2018-05-29T16:44:22.899Z,45.70
2018-05-29T16:47:02.750Z,46.50
2018-05-29T16:49:32.427Z,47.70
2018-05-29T16:52:01.295Z,47.70
2018-05-29T16:54:30.205Z,48.60
2018-05-29T16:57:02.203Z,49.20
2018-05-29T16:59:32.677Z,50.20
2018-05-29T17:02:01.560Z,50.90
2018-05-29T17:04:30.455Z,50.40
2018-05-29T17:06:59.323Z,50.50
2018-05-29T17:09:28.247Z,50.90
2018-05-29T17:11:57.173Z,51.10
2018-05-29T17:14:26.074Z,50.90
2018-05-29T17:16:54.974Z,51.10
2018-05-29T17:19:23.876Z,51.40
2018-05-29T17:21:52.821Z,51.80
2018-05-29T17:24:21.693Z,52.00
2018-05-29T17:26:50.679Z,52.00
2018-05-29T17:29:19.540Z,52.40
2018-05-29T17:31:49.435Z,52.70
2018-05-29T17:34:18.346Z,52.70
2018-05-29T17:36:47.213Z,52.30
2018-05-29T17:39:16.117Z,52.60
2018-05-29T17:41:44.978Z,52.70
2018-05-29T17:44:14.018Z,52.90
2018-05-29T17:46:43.010Z,53.20
2018-05-29T17:49:11.923Z,53.50
2018-05-29T17:51:41.611Z,53.80
2018-05-29T17:54:10.577Z,53.70
2018-05-29T17:56:39.513Z,54.30
2018-05-29T17:59:08.399Z,54.00
2018-05-29T18:01:37.308Z,53.20
2018-05-29T18:04:06.205Z,53.30
2018-05-29T18:06:35.853Z,53.70
2018-05-29T18:09:05.591Z,53.60
2018-05-29T18:11:34.492Z,53.90
2018-05-29T18:14:03.448Z,54.30
2018-05-29T18:16:33.051Z,55.20
2018-05-29T18:19:01.957Z,55.10
2018-05-29T18:21:30.832Z,55.90
2018-05-29T18:23:59.717Z,56.90
2018-05-29T18:26:28.627Z,58.40
2018-05-29T18:28:57.592Z,58.90
2018-05-29T18:31:26.523Z,59.70
2018-05-29T18:33:55.439Z,60.30
2018-05-29T18:36:24.316Z,60.90
2018-05-29T18:38:53.224Z,61.40
2018-05-29T18:41:22.928Z,62.70
2018-05-29T18:43:51.814Z,62.60
2018-05-29T18:46:21.670Z,64.10
2018-05-29T18:48:50.575Z,64.10
2018-05-29T18:51:19.477Z,65.10
2018-05-29T18:53:48.378Z,65.70
2018-05-29T18:56:17.326Z,66.80
2018-05-29T18:58:46.255Z,67.40
2018-05-29T19:01:15.269Z,68.10
2018-05-29T19:03:44.180Z,68.70
2018-05-29T19:06:13.141Z,69.50
2018-05-29T19:08:42.038Z,70.00
2018-05-29T19:11:10.929Z,70.00
2018-05-29T19:13:40.601Z,71.70
2018-05-29T19:16:09.499Z,71.70
2018-05-29T19:18:38.445Z,72.90
2018-05-29T19:21:07.337Z,74.00
2018-05-29T19:23:36.233Z,74.60
2018-05-29T19:26:05.170Z,75.70
2018-05-29T19:28:34.064Z,76.40
2018-05-29T19:31:03.009Z,77.30
2018-05-29T19:33:31.934Z,78.30
2018-05-29T19:36:01.614Z,80.00
2018-05-29T19:38:30.589Z,80.00
2018-05-29T19:40:59.493Z,79.90
2018-05-29T19:43:28.527Z,80.30
2018-05-29T19:45:58.933Z,79.40
2018-05-29T19:48:27.864Z,79.30
2018-05-29T19:50:57.621Z,76.60
2018-05-29T19:53:27.241Z,76.60
2018-05-29T19:55:56.172Z,76.40
2018-05-29T19:58:26.016Z,75.60
2018-05-29T20:00:54.910Z,75.40
2018-05-29T20:03:29.517Z,75.50
2018-05-29T20:05:58.444Z,75.80
2018-05-29T20:08:27.374Z,76.20
2018-05-29T20:10:57.028Z,78.70
2018-05-29T20:13:25.940Z,78.70
2018-05-29T20:15:54.875Z,81.00
2018-05-29T20:18:23.798Z,81.90
2018-05-29T20:20:52.719Z,82.70
2018-05-29T20:23:21.651Z,82.90
2018-05-29T20:25:51.512Z,83.50
2018-05-29T20:28:20.458Z,84.10
2018-05-29T20:30:50.083Z,84.90
2018-05-29T20:33:18.981Z,84.80
2018-05-29T20:35:47.972Z,85.50
2018-05-29T20:38:16.884Z,85.90
2018-05-29T20:40:45.771Z,86.20
2018-05-29T20:43:14.667Z,86.30
2018-05-29T20:45:43.581Z,87.30
2018-05-29T20:48:13.269Z,87.80
2018-05-29T20:50:42.206Z,87.80
2018-05-29T20:53:11.116Z,88.20
2018-05-29T20:55:40.007Z,88.70
2018-05-29T20:58:08.967Z,89.20
2018-05-29T21:00:38.621Z,90.60
2018-05-29T21:03:07.735Z,90.60
2018-05-29T21:05:36.712Z,91.10
2018-05-29T21:08:05.593Z,91.80
2018-05-29T21:10:34.527Z,92.30
2018-05-29T21:13:04.180Z,93.00
2018-05-29T21:15:33.137Z,93.00
2018-05-29T21:18:02.043Z,93.40
2018-05-29T21:20:30.928Z,94.50
2018-05-29T21:22:59.852Z,93.30
2018-05-29T21:25:28.851Z,92.30
2018-05-29T21:27:57.745Z,92.70
2018-05-29T21:30:26.675Z,93.10
2018-05-29T21:33:02.658Z,93.00
2018-05-29T21:35:39.573Z,93.00
2018-05-29T21:38:10.657Z,92.80
2018-05-29T21:40:39.551Z,93.50
2018-05-29T21:43:08.484Z,94.00
2018-05-29T21:45:37.437Z,93.90
2018-05-29T21:48:06.347Z,94.50
2018-05-29T21:50:35.259Z,95.10
2018-05-29T21:53:04.254Z,95.50
2018-05-29T21:55:33.247Z,95.60
2018-05-29T21:58:02.217Z,95.90
2018-05-29T22:00:31.197Z,96.30
2018-05-29T22:03:00.191Z,96.60
2018-05-29T22:05:29.101Z,97.00
2018-05-29T22:07:57.994Z,97.60
2018-05-29T22:10:26.900Z,97.60
2018-05-29T22:12:55.817Z,97.70
2018-05-29T22:15:24.725Z,98.30
2018-05-29T22:17:53.630Z,98.50
2018-05-29T22:20:22.534Z,98.40
2018-05-29T22:22:52.027Z,98.80
2018-05-29T22:25:21.818Z,98.40
2018-05-29T22:27:50.748Z,98.40
2018-05-29T22:30:19.682Z,98.70
2018-05-29T22:32:48.609Z,98.80
2018-05-29T22:35:17.537Z,99.00
2018-05-29T22:37:47.323Z,98.30
2018-05-29T22:40:16.298Z,98.30
2018-05-29T22:42:45.236Z,98.60
2018-05-29T22:45:15.001Z,99.20
2018-05-29T22:47:43.931Z,99.10
2018-05-29T22:50:12.832Z,99.30
2018-05-29T22:52:42.509Z,99.90
2018-05-29T22:55:11.421Z,99.90
2018-05-29T22:57:40.305Z,99.90
2018-05-29T23:00:09.984Z,99.90
2018-05-29T23:02:38.871Z,99.80
2018-05-29T23:05:07.808Z,99.90
2018-05-29T23:07:36.752Z,99.80
2018-05-29T23:10:05.658Z,99.90
2018-05-29T23:12:34.569Z,98.00
2018-05-29T23:15:03.441Z,98.60
2018-05-29T23:17:32.416Z,99.00
2018-05-29T23:20:01.320Z,98.50
2018-05-29T23:22:30.225Z,98.30
2018-05-29T23:25:01.784Z,99.90
2018-05-29T23:27:30.667Z,99.90
2018-05-29T23:29:59.559Z,99.90
2018-05-29T23:32:28.452Z,99.90
2018-05-29T23:34:57.328Z,99.90
2018-05-29T23:37:26.221Z,99.90
2018-05-29T23:39:55.862Z,99.90
2018-05-29T23:42:24.761Z,99.90
2018-05-29T23:44:53.663Z,99.90
2018-05-29T23:47:22.521Z,99.90
2018-05-29T23:49:51.419Z,99.90
2018-05-29T23:52:20.328Z,99.90
2018-05-29T23:54:49.215Z,99.90
2018-05-29T23:57:18.099Z,99.90
2018-05-29T23:59:46.974Z,99.90
